Flight Track Log - Related Links

Times and Time Zones

All times are in EDT time to prevent confusion due to time zone crossing. See the FSR411 flight status page for this flight to view local times or setup timezone preferences in your user account.

Time Position Orientation Groundspeed Altitude Reporting Facility
EDT Latitude Longitude Course Direction KTS MPH feet Rate Location/Type
Thu 02:15:57 PM 44.8278 -93.2322 214° Southwest 194 223 3,500  Level Minneapolis Center
Thu 02:17:00 PM 44.7736 -93.2775 211° Southwest 232 267 6,500 1,680 Climbing Minneapolis Center
Thu 02:18:02 PM 44.7056 -93.3647 222° Southwest 289 333 7,000 919 Climbing Minneapolis Center
Thu 02:19:04 PM 44.6506 -93.4428 225° Southwest 283 326 8,400 2,177 Climbing Minneapolis Center
Thu 02:20:06 PM 44.5772 -93.4989 209° Southwest 299 344 11,500 3,000 Climbing Minneapolis Center
Thu 02:21:00 PM 44.3905 -93.6842 214° Southwest  Level Estimated
Thu 02:21:08 PM 44.4917 -93.5678 210° Southwest 354 407 14,600  Level Minneapolis Center
Thu 02:22:10 PM 44.3944 -93.6453 210° Southwest 404 465 17,600 2,855 Climbing Minneapolis Center
Thu 02:23:12 PM 44.2958 -93.7267 211° Southwest 410 472 20,500 3,048 Climbing Minneapolis Center
Thu 02:24:14 PM 44.1742 -93.8250 210° Southwest 419 482 23,900 2,855 Climbing Minneapolis Center
Thu 02:25:16 PM 44.0697 -93.9083 210° Southwest 428 493 26,400 2,256 Climbing Minneapolis Center
Thu 02:26:19 PM 43.9650 -93.9906 209° Southwest 433 498 28,600 1,680 Climbing Minneapolis Center
Thu 02:27:21 PM 43.8583 -94.0744 210° Southwest 439 505 29,900 677 Climbing Minneapolis Center
Thu 02:28:23 PM 43.7475 -94.1617 210° Southwest 454 522 30,000 48 Climbing Minneapolis Center
Thu 02:29:25 PM 43.6197 -94.2631 210° Southwest 458 527 30,000  Level Minneapolis Center
Thu 02:30:27 PM 43.5064 -94.3508 209° Southwest 464 534 30,000  Level Minneapolis Center
Thu 02:31:29 PM 43.3928 -94.4394 210° Southwest 468 539 30,000  Level Minneapolis Center
Thu 02:32:31 PM 43.2794 -94.5261 209° Southwest 467 537 30,000  Level Minneapolis Center
Thu 02:33:33 PM 43.1586 -94.5969 203° Southwest 469 540 30,000  Level Minneapolis Center
Thu 02:34:35 PM 43.0142 -94.6803 203° Southwest 469 540 30,000  Level Minneapolis Center
Thu 02:35:37 PM 42.9072 -94.7833 215° Southwest 469 540 30,000  Level Minneapolis Center
Thu 02:36:39 PM 42.8025 -94.8878 216° Southwest 467 537 30,000  Level Minneapolis Center
Thu 02:37:42 PM 42.6953 -94.9950 216° Southwest 469 540 30,000  Level Minneapolis Center
Thu 02:38:44 PM 42.5903 -95.0989 216° Southwest 467 537 30,000  Level Minneapolis Center
Thu 02:39:46 PM 42.4864 -95.1992 215° Southwest 462 532 30,000 -488 Level Minneapolis Center
Thu 02:40:47 PM 42.4044 -95.2811 216° Southwest 458 527 29,000 -1,742 Descending Minneapolis Center
Thu 02:41:50 PM 42.2594 -95.4219 216° Southwest 460 529 26,400 -2,112 Descending Minneapolis Center
Thu 02:42:52 PM 42.1586 -95.5203 216° Southwest 451 519 24,600 -1,694 Descending Minneapolis Center
Thu 02:43:54 PM 42.0592 -95.6167 216° Southwest 444 511 22,900 -1,645 Descending Minneapolis Center
Thu 02:44:56 PM 41.9636 -95.7106 216° Southwest 430 495 21,200 -1,597 Descending Minneapolis Center
Thu 02:45:58 PM 41.8883 -95.7825 215° Southwest 420 483 19,600 -1,742 Descending Minneapolis Center
Thu 02:47:00 PM 41.7772 -95.8886 215° Southwest 412 474 17,600 -1,969 Descending Minneapolis Center
Thu 02:48:09 PM 41.6625 -96.0106 218° Southwest 353 406 15,300 -1,968 Descending Minneapolis Center
Thu 02:49:05 PM 41.5972 -96.0608 210° Southwest 353 406 13,500 -1,672 Descending Minneapolis Center
Thu 02:50:11 PM 41.5067 -96.1539 218° Southwest 337 388 11,900 -1,161 Descending Minneapolis Center
Thu 02:51:09 PM 41.4450 -96.2044 212° Southwest 340 391 11,100 -600 Descending Minneapolis Center
Thu 02:52:11 PM 41.3572 -96.2872 215° Southwest 329 379 10,700 -661 Descending Minneapolis Center
Thu 02:53:07 PM 41.2928 -96.3469 215° Southwest 268 308 9,800 -829 Descending Minneapolis Center
Thu 02:54:14 PM 41.2194 -96.4131 214° Southwest 275 316 9,000 -844 Descending Minneapolis Center
Thu 02:55:15 PM 41.1667 -96.4742 221° Southwest 257 296 8,000 -1,426 Descending Minneapolis Center
Thu 02:56:16 PM 41.1167 -96.5431 226° Southwest 264 304 6,100 -1,606 Descending Minneapolis Center
Thu 02:57:22 PM 41.0708 -96.6261 234° Southwest 264 304 4,600 -1,172 Descending Minneapolis Center
Thu 02:58:24 PM 41.0150 -96.6975 224° Southwest 250 288 3,600 -828 Descending Minneapolis Center
Thu 02:59:18 PM 40.9744 -96.7514 225° Southwest 219 252 3,000 -417 Descending Minneapolis Center
Thu 03:00:19 PM 40.9306 -96.7889 213° Southwest 173 199 2,800 -541 Descending Minneapolis Center
Thu 03:01:20 PM 40.8869 -96.7933 184° South 132 152 1,900 -493 Descending Minneapolis Center
Thu 03:02:45 PM 40.8589 -96.7631 141° Southeast 152 175 1,600 -212 Descending Minneapolis Center

Login

Don't have an account? Register now (free) for customized features, flight alerts, and more!